createdAt,value
2022-09-15T00:01:29.116Z,98083.88
2022-09-15T00:11:36.237Z,98077.90
2022-09-15T00:21:43.845Z,98080.17
2022-09-15T00:31:49.450Z,98071.20
2022-09-15T00:41:55.046Z,98071.65
2022-09-15T00:52:05.662Z,98067.54
2022-09-15T01:02:17.062Z,98051.33
2022-09-15T01:12:25.098Z,98046.13
2022-09-15T01:22:42.114Z,98042.73
2022-09-15T01:33:20.834Z,98023.58
2022-09-15T01:43:29.588Z,97999.91
2022-09-15T01:53:36.587Z,97998.70
2022-09-15T02:03:47.051Z,97997.64
2022-09-15T02:14:03.770Z,98003.80
2022-09-15T02:24:13.658Z,97997.11
2022-09-15T02:34:22.725Z,97994.16
2022-09-15T02:44:30.580Z,97993.48
2022-09-15T02:54:36.268Z,97984.58
2022-09-15T03:04:41.930Z,97970.70
2022-09-15T03:14:47.920Z,97989.10
2022-09-15T03:24:53.534Z,97992.05
2022-09-15T03:34:59.356Z,98011.73
2022-09-15T03:45:05.395Z,97998.88
2022-09-15T03:55:11.802Z,97994.22
2022-09-15T04:05:17.432Z,97992.25
2022-09-15T04:15:23.717Z,97990.87
2022-09-15T04:25:29.573Z,97997.86
2022-09-15T04:35:35.214Z,97998.13
2022-09-15T04:45:40.994Z,97997.11
2022-09-15T04:55:46.646Z,97999.73
2022-09-15T05:05:52.540Z,98004.29
2022-09-15T05:16:04.012Z,98026.25
2022-09-15T05:26:13.368Z,98023.75
2022-09-15T05:36:21.367Z,98025.48
2022-09-15T05:46:27.869Z,98003.52
2022-09-15T05:56:34.086Z,98016.02
2022-09-15T06:06:39.746Z,98030.98
2022-09-15T06:16:45.805Z,98036.66
2022-09-15T06:26:51.539Z,98031.90
2022-09-15T06:36:57.194Z,98037.45
2022-09-15T06:47:02.906Z,98050.31
2022-09-15T06:57:08.679Z,98055.70
2022-09-15T07:07:14.281Z,98068.95
2022-09-15T07:17:19.925Z,98074.98
2022-09-15T07:27:30.230Z,98082.06
2022-09-15T07:37:36.172Z,98087.15
2022-09-15T07:47:41.756Z,98086.39
2022-09-15T07:57:47.458Z,98085.52
2022-09-15T08:07:53.072Z,98102.77
2022-09-15T08:17:58.883Z,98111.11
2022-09-15T08:28:05.238Z,98114.26
2022-09-15T08:38:11.182Z,98115.27
2022-09-15T08:48:21.389Z,98123.73
2022-09-15T08:58:29.734Z,98134.48
2022-09-15T09:08:52.245Z,98134.41
2022-09-15T09:19:22.505Z,98127.52
2022-09-15T09:29:35.814Z,98127.38
2022-09-15T09:39:41.432Z,98139.84
2022-09-15T09:49:50.474Z,98140.25
2022-09-15T09:59:56.662Z,98136.09
2022-09-15T10:10:03.138Z,98123.86
2022-09-15T10:20:25.620Z,98114.65
2022-09-15T10:30:31.465Z,98113.92
2022-09-15T10:40:47.122Z,98128.33
2022-09-15T10:51:00.074Z,98133.37
2022-09-15T11:01:23.094Z,98117.94
2022-09-15T11:11:36.881Z,98113.98
2022-09-15T11:21:48.372Z,98111.55
2022-09-15T11:42:12.684Z,98109.69
2022-09-15T11:52:35.632Z,98113.09
2022-09-15T12:02:48.694Z,98115.98
2022-09-15T12:12:56.715Z,98113.50
2022-09-15T12:23:03.758Z,98112.46
2022-09-15T12:33:54.706Z,98111.23
2022-09-15T12:44:15.628Z,98101.76
2022-09-15T12:54:28.409Z,98106.16
2022-09-15T13:04:58.029Z,98110.13
2022-09-15T13:15:06.324Z,98111.06
2022-09-15T13:25:20.724Z,98104.21
2022-09-15T13:35:39.898Z,98086.96
2022-09-15T13:45:58.435Z,98083.86
2022-09-15T13:56:07.909Z,98081.52
2022-09-15T14:06:16.351Z,98080.84
2022-09-15T14:16:30.135Z,98071.42
2022-09-15T14:26:37.663Z,98063.73
2022-09-15T14:36:43.514Z,98048.85
2022-09-15T14:46:49.627Z,98040.27
2022-09-15T14:56:57.838Z,98038.38
2022-09-15T15:07:08.289Z,98039.41
2022-09-15T15:17:29.000Z,98038.36
2022-09-15T15:27:44.176Z,98037.45
2022-09-15T15:37:50.678Z,98035.30
2022-09-15T15:47:56.640Z,98037.02
2022-09-15T15:58:02.241Z,98040.70
2022-09-15T16:08:12.450Z,98045.08
2022-09-15T16:18:18.406Z,98035.13
2022-09-15T16:28:24.200Z,98038.47
2022-09-15T16:38:29.989Z,98038.13
2022-09-15T16:48:35.617Z,98044.45
2022-09-15T16:58:41.641Z,98047.90
2022-09-15T17:08:47.663Z,98054.20
2022-09-15T17:18:53.415Z,98059.77
2022-09-15T17:28:59.046Z,98068.79
2022-09-15T17:39:04.844Z,98074.57
2022-09-15T17:49:10.426Z,98069.33
2022-09-15T17:59:16.337Z,98083.77
2022-09-15T18:09:22.205Z,98087.27
2022-09-15T18:19:27.799Z,98098.50
2022-09-15T18:29:33.588Z,98102.23
2022-09-15T18:39:39.205Z,98103.62
2022-09-15T18:49:44.942Z,98101.65
2022-09-15T18:59:50.906Z,98092.16
2022-09-15T19:09:57.266Z,98102.56
2022-09-15T19:20:03.403Z,98110.71
2022-09-15T19:30:11.978Z,98109.39
2022-09-15T19:40:18.246Z,98106.50
2022-09-15T19:50:25.043Z,98106.33
2022-09-15T20:00:30.786Z,98114.84
2022-09-15T20:10:39.790Z,98124.55
2022-09-15T20:20:45.771Z,98133.23
2022-09-15T20:31:01.271Z,98134.41
2022-09-15T20:41:09.404Z,98141.69
2022-09-15T20:51:17.117Z,98135.50
2022-09-15T21:01:24.836Z,98133.39
2022-09-15T21:11:31.234Z,98144.38
2022-09-15T21:21:37.328Z,98148.68
2022-09-15T21:31:43.308Z,98149.98
2022-09-15T21:41:49.806Z,98155.23
2022-09-15T21:51:56.415Z,98163.58
2022-09-15T22:02:02.506Z,98169.86
2022-09-15T22:12:08.977Z,98176.36
2022-09-15T22:22:14.769Z,98187.61
2022-09-15T22:32:20.621Z,98197.44
2022-09-15T22:42:27.796Z,98206.51
2022-09-15T22:52:33.640Z,98210.50
2022-09-15T23:02:39.494Z,98220.43
2022-09-15T23:12:45.112Z,98223.66
2022-09-15T23:22:50.733Z,98220.55
2022-09-15T23:32:56.598Z,98214.73
2022-09-15T23:43:02.373Z,98220.25
2022-09-15T23:53:08.478Z,98218.31
